sensor_id;sensor_type;location;lat;lon;timestamp;temperature;humidity
75387;DHT22;63966;47.914;22.266;2023-04-24T00:02:33;8.56;75.60
75387;DHT22;63966;47.914;22.266;2023-04-24T00:05:37;8.49;75.66
75387;DHT22;63966;47.914;22.266;2023-04-24T00:08:43;8.37;76.02
75387;DHT22;63966;47.914;22.266;2023-04-24T00:11:47;8.19;76.34
75387;DHT22;63966;47.914;22.266;2023-04-24T00:14:50;7.96;77.16
75387;DHT22;63966;47.914;22.266;2023-04-24T00:17:54;8.03;77.27
75387;DHT22;63966;47.914;22.266;2023-04-24T00:20:57;8.22;76.81
75387;DHT22;63966;47.914;22.266;2023-04-24T00:24:01;8.15;76.97
75387;DHT22;63966;47.914;22.266;2023-04-24T00:27:05;8.21;76.97
75387;DHT22;63966;47.914;22.266;2023-04-24T00:30:09;8.16;77.16
75387;DHT22;63966;47.914;22.266;2023-04-24T00:33:18;8.22;76.92
75387;DHT22;63966;47.914;22.266;2023-04-24T00:36:22;8.25;76.38
75387;DHT22;63966;47.914;22.266;2023-04-24T00:39:26;8.09;76.82
75387;DHT22;63966;47.914;22.266;2023-04-24T00:42:29;8.07;77.39
75387;DHT22;63966;47.914;22.266;2023-04-24T00:45:33;7.99;77.28
75387;DHT22;63966;47.914;22.266;2023-04-24T00:48:41;7.89;77.94
75387;DHT22;63966;47.914;22.266;2023-04-24T00:51:44;7.79;78.54
75387;DHT22;63966;47.914;22.266;2023-04-24T00:54:53;7.70;78.62
75387;DHT22;63966;47.914;22.266;2023-04-24T00:57:56;7.60;78.84
75387;DHT22;63966;47.914;22.266;2023-04-24T01:01:00;7.60;79.15
75387;DHT22;63966;47.914;22.266;2023-04-24T01:04:05;7.63;79.23
75387;DHT22;63966;47.914;22.266;2023-04-24T01:07:11;7.55;79.04
75387;DHT22;63966;47.914;22.266;2023-04-24T01:10:15;7.44;79.33
75387;DHT22;63966;47.914;22.266;2023-04-24T01:13:21;7.33;79.31
75387;DHT22;63966;47.914;22.266;2023-04-24T01:16:25;7.24;80.54
75387;DHT22;63966;47.914;22.266;2023-04-24T01:19:29;7.43;80.16
75387;DHT22;63966;47.914;22.266;2023-04-24T01:22:36;7.54;79.34
75387;DHT22;63966;47.914;22.266;2023-04-24T01:25:39;7.55;79.22
75387;DHT22;63966;47.914;22.266;2023-04-24T01:28:43;7.58;78.93
75387;DHT22;63966;47.914;22.266;2023-04-24T01:31:46;7.54;79.02
75387;DHT22;63966;47.914;22.266;2023-04-24T01:34:51;7.50;79.01
75387;DHT22;63966;47.914;22.266;2023-04-24T01:37:54;7.36;79.23
75387;DHT22;63966;47.914;22.266;2023-04-24T01:40:58;7.37;79.58
75387;DHT22;63966;47.914;22.266;2023-04-24T01:44:02;7.31;79.93
75387;DHT22;63966;47.914;22.266;2023-04-24T01:47:07;7.31;79.81
75387;DHT22;63966;47.914;22.266;2023-04-24T01:50:10;7.16;80.17
75387;DHT22;63966;47.914;22.266;2023-04-24T01:53:14;7.16;79.75
75387;DHT22;63966;47.914;22.266;2023-04-24T01:56:19;7.24;79.45
75387;DHT22;63966;47.914;22.266;2023-04-24T01:59:24;7.27;79.39
75387;DHT22;63966;47.914;22.266;2023-04-24T02:02:28;7.38;79.06
75387;DHT22;63966;47.914;22.266;2023-04-24T02:05:33;7.74;77.84
75387;DHT22;63966;47.914;22.266;2023-04-24T02:08:38;7.70;78.07
75387;DHT22;63966;47.914;22.266;2023-04-24T02:11:42;7.44;78.78
75387;DHT22;63966;47.914;22.266;2023-04-24T02:14:46;7.43;79.23
75387;DHT22;63966;47.914;22.266;2023-04-24T02:17:49;7.38;79.36
75387;DHT22;63966;47.914;22.266;2023-04-24T02:20:53;7.33;79.57
75387;DHT22;63966;47.914;22.266;2023-04-24T02:23:57;7.30;79.76
75387;DHT22;63966;47.914;22.266;2023-04-24T02:27:01;7.40;79.49
75387;DHT22;63966;47.914;22.266;2023-04-24T02:30:06;7.38;79.39
75387;DHT22;63966;47.914;22.266;2023-04-24T02:33:11;7.15;80.04
75387;DHT22;63966;47.914;22.266;2023-04-24T02:36:14;7.06;80.41
75387;DHT22;63966;47.914;22.266;2023-04-24T02:39:18;7.00;80.36
75387;DHT22;63966;47.914;22.266;2023-04-24T02:42:21;6.96;80.56
75387;DHT22;63966;47.914;22.266;2023-04-24T02:45:25;7.06;80.50
75387;DHT22;63966;47.914;22.266;2023-04-24T02:48:34;7.10;80.29
75387;DHT22;63966;47.914;22.266;2023-04-24T02:51:38;7.07;80.37
75387;DHT22;63966;47.914;22.266;2023-04-24T02:54:44;7.06;80.78
75387;DHT22;63966;47.914;22.266;2023-04-24T02:57:47;7.02;80.92
75387;DHT22;63966;47.914;22.266;2023-04-24T03:00:55;6.91;81.17
75387;DHT22;63966;47.914;22.266;2023-04-24T03:03:59;6.91;81.38
75387;DHT22;63966;47.914;22.266;2023-04-24T03:07:03;6.85;81.38
75387;DHT22;63966;47.914;22.266;2023-04-24T03:10:08;6.72;81.65
75387;DHT22;63966;47.914;22.266;2023-04-24T03:13:11;6.68;81.84
75387;DHT22;63966;47.914;22.266;2023-04-24T03:16:15;6.54;82.35
75387;DHT22;63966;47.914;22.266;2023-04-24T03:19:18;6.42;82.83
75387;DHT22;63966;47.914;22.266;2023-04-24T03:22:45;6.29;83.29
75387;DHT22;63966;47.914;22.266;2023-04-24T03:25:48;6.20;83.71
75387;DHT22;63966;47.914;22.266;2023-04-24T03:28:55;6.14;83.89
75387;DHT22;63966;47.914;22.266;2023-04-24T03:31:59;6.14;83.90
75387;DHT22;63966;47.914;22.266;2023-04-24T03:35:03;6.29;83.45
75387;DHT22;63966;47.914;22.266;2023-04-24T03:38:07;6.45;82.84
75387;DHT22;63966;47.914;22.266;2023-04-24T03:41:30;6.44;82.60
75387;DHT22;63966;47.914;22.266;2023-04-24T03:44:43;6.44;82.62
75387;DHT22;63966;47.914;22.266;2023-04-24T03:47:47;6.88;81.95
75387;DHT22;63966;47.914;22.266;2023-04-24T03:50:50;7.12;80.79
75387;DHT22;63966;47.914;22.266;2023-04-24T03:53:54;7.48;79.71
75387;DHT22;63966;47.914;22.266;2023-04-24T03:56:59;8.09;77.55
75387;DHT22;63966;47.914;22.266;2023-04-24T04:00:07;8.77;74.99
75387;DHT22;63966;47.914;22.266;2023-04-24T04:03:16;9.35;72.49
75387;DHT22;63966;47.914;22.266;2023-04-24T04:06:20;9.94;70.21
75387;DHT22;63966;47.914;22.266;2023-04-24T04:09:26;10.60;67.18
75387;DHT22;63966;47.914;22.266;2023-04-24T04:12:31;11.12;65.39
75387;DHT22;63966;47.914;22.266;2023-04-24T04:15:34;11.68;64.05
75387;DHT22;63966;47.914;22.266;2023-04-24T04:18:38;12.12;62.77
75387;DHT22;63966;47.914;22.266;2023-04-24T04:21:43;12.56;61.34
75387;DHT22;63966;47.914;22.266;2023-04-24T04:25:05;12.81;61.19
75387;DHT22;63966;47.914;22.266;2023-04-24T04:28:10;13.16;60.81
75387;DHT22;63966;47.914;22.266;2023-04-24T04:31:13;13.40;59.10
75387;DHT22;63966;47.914;22.266;2023-04-24T04:34:17;13.44;59.20
75387;DHT22;63966;47.914;22.266;2023-04-24T04:37:21;13.74;57.68
75387;DHT22;63966;47.914;22.266;2023-04-24T04:40:38;14.25;55.55
75387;DHT22;63966;47.914;22.266;2023-04-24T04:43:42;14.40;55.59
75387;DHT22;63966;47.914;22.266;2023-04-24T04:46:46;15.06;54.06
75387;DHT22;63966;47.914;22.266;2023-04-24T04:49:57;15.50;52.36
75387;DHT22;63966;47.914;22.266;2023-04-24T04:53:03;15.56;51.72
75387;DHT22;63966;47.914;22.266;2023-04-24T04:56:10;15.98;50.68
75387;DHT22;63966;47.914;22.266;2023-04-24T04:59:19;16.25;51.08
75387;DHT22;63966;47.914;22.266;2023-04-24T05:02:25;16.84;48.14
75387;DHT22;63966;47.914;22.266;2023-04-24T05:05:28;17.34;47.18
75387;DHT22;63966;47.914;22.266;2023-04-24T05:08:32;17.86;45.71
75387;DHT22;63966;47.914;22.266;2023-04-24T05:11:35;17.97;46.52
75387;DHT22;63966;47.914;22.266;2023-04-24T05:14:39;18.38;45.23
75387;DHT22;63966;47.914;22.266;2023-04-24T05:17:44;18.71;44.09
75387;DHT22;63966;47.914;22.266;2023-04-24T05:20:48;18.36;44.83
75387;DHT22;63966;47.914;22.266;2023-04-24T05:23:52;18.84;44.21
75387;DHT22;63966;47.914;22.266;2023-04-24T05:27:21;19.26;44.07
75387;DHT22;63966;47.914;22.266;2023-04-24T05:30:25;19.54;43.78
75387;DHT22;63966;47.914;22.266;2023-04-24T05:33:30;20.26;41.63
75387;DHT22;63966;47.914;22.266;2023-04-24T05:36:33;20.74;40.64
75387;DHT22;63966;47.914;22.266;2023-04-24T05:39:37;20.36;42.44
75387;DHT22;63966;47.914;22.266;2023-04-24T05:42:41;20.78;41.77
75387;DHT22;63966;47.914;22.266;2023-04-24T05:45:44;21.05;40.12
75387;DHT22;63966;47.914;22.266;2023-04-24T05:48:48;21.28;40.24
75387;DHT22;63966;47.914;22.266;2023-04-24T05:51:51;21.94;38.48
75387;DHT22;63966;47.914;22.266;2023-04-24T05:54:55;21.97;37.78
75387;DHT22;63966;47.914;22.266;2023-04-24T05:58:01;22.58;36.86
75387;DHT22;63966;47.914;22.266;2023-04-24T06:01:05;22.83;36.00
75387;DHT22;63966;47.914;22.266;2023-04-24T06:04:11;22.15;36.47
75387;DHT22;63966;47.914;22.266;2023-04-24T06:07:17;21.66;37.69
75387;DHT22;63966;47.914;22.266;2023-04-24T06:10:21;21.93;37.35
75387;DHT22;63966;47.914;22.266;2023-04-24T06:13:25;21.96;37.16
75387;DHT22;63966;47.914;22.266;2023-04-24T06:16:49;22.75;36.28
75387;DHT22;63966;47.914;22.266;2023-04-24T06:20:06;23.04;35.98
75387;DHT22;63966;47.914;22.266;2023-04-24T06:23:10;23.16;35.99
75387;DHT22;63966;47.914;22.266;2023-04-24T06:26:14;23.28;36.12
75387;DHT22;63966;47.914;22.266;2023-04-24T06:29:17;23.74;35.30
75387;DHT22;63966;47.914;22.266;2023-04-24T06:32:24;23.18;35.53
75387;DHT22;63966;47.914;22.266;2023-04-24T06:35:28;23.41;35.74
75387;DHT22;63966;47.914;22.266;2023-04-24T06:38:32;23.68;35.75
75387;DHT22;63966;47.914;22.266;2023-04-24T06:41:35;23.59;34.76
75387;DHT22;63966;47.914;22.266;2023-04-24T06:44:39;23.45;35.40
75387;DHT22;63966;47.914;22.266;2023-04-24T06:47:46;23.45;35.34
75387;DHT22;63966;47.914;22.266;2023-04-24T06:50:50;23.65;34.37
75387;DHT22;63966;47.914;22.266;2023-04-24T06:53:54;23.86;35.02
75387;DHT22;63966;47.914;22.266;2023-04-24T06:56:59;24.34;34.06
75387;DHT22;63966;47.914;22.266;2023-04-24T07:00:05;24.70;33.95
75387;DHT22;63966;47.914;22.266;2023-04-24T07:03:11;24.79;33.50
75387;DHT22;63966;47.914;22.266;2023-04-24T07:06:20;25.53;31.94
75387;DHT22;63966;47.914;22.266;2023-04-24T07:09:30;25.05;33.32
75387;DHT22;63966;47.914;22.266;2023-04-24T07:12:44;24.94;33.27
75387;DHT22;63966;47.914;22.266;2023-04-24T07:15:51;24.79;32.84
75387;DHT22;63966;47.914;22.266;2023-04-24T07:18:57;25.05;32.89
75387;DHT22;63966;47.914;22.266;2023-04-24T07:22:01;24.46;33.75
75387;DHT22;63966;47.914;22.266;2023-04-24T07:25:07;25.75;31.89
75387;DHT22;63966;47.914;22.266;2023-04-24T07:28:11;25.91;31.78
75387;DHT22;63966;47.914;22.266;2023-04-24T07:31:15;26.25;31.42
75387;DHT22;63966;47.914;22.266;2023-04-24T07:34:18;26.64;31.22
75387;DHT22;63966;47.914;22.266;2023-04-24T07:37:22;25.75;31.02
75387;DHT22;63966;47.914;22.266;2023-04-24T07:40:25;26.24;31.50
75387;DHT22;63966;47.914;22.266;2023-04-24T07:43:29;26.05;31.56
75387;DHT22;63966;47.914;22.266;2023-04-24T07:46:33;26.38;30.87
75387;DHT22;63966;47.914;22.266;2023-04-24T07:49:37;26.90;30.83
75387;DHT22;63966;47.914;22.266;2023-04-24T07:52:43;26.75;29.68
75387;DHT22;63966;47.914;22.266;2023-04-24T07:55:47;26.57;30.91
75387;DHT22;63966;47.914;22.266;2023-04-24T07:58:50;27.23;30.81
75387;DHT22;63966;47.914;22.266;2023-04-24T08:01:54;27.06;29.18
75387;DHT22;63966;47.914;22.266;2023-04-24T08:04:57;26.66;29.38
75387;DHT22;63966;47.914;22.266;2023-04-24T08:08:02;26.63;29.78
75387;DHT22;63966;47.914;22.266;2023-04-24T08:11:06;27.01;28.80
75387;DHT22;63966;47.914;22.266;2023-04-24T08:14:09;26.75;29.89
75387;DHT22;63966;47.914;22.266;2023-04-24T08:17:17;27.33;30.02
75387;DHT22;63966;47.914;22.266;2023-04-24T08:20:20;27.89;29.04
75387;DHT22;63966;47.914;22.266;2023-04-24T08:23:24;26.91;29.42
75387;DHT22;63966;47.914;22.266;2023-04-24T08:26:27;27.66;28.83
75387;DHT22;63966;47.914;22.266;2023-04-24T08:29:31;26.73;29.76
75387;DHT22;63966;47.914;22.266;2023-04-24T08:32:36;27.37;29.05
75387;DHT22;63966;47.914;22.266;2023-04-24T08:35:40;27.20;30.90
75387;DHT22;63966;47.914;22.266;2023-04-24T08:38:44;27.69;29.19
75387;DHT22;63966;47.914;22.266;2023-04-24T08:41:49;28.55;30.13
75387;DHT22;63966;47.914;22.266;2023-04-24T08:44:54;26.91;30.14
75387;DHT22;63966;47.914;22.266;2023-04-24T08:48:00;25.26;31.96
75387;DHT22;63966;47.914;22.266;2023-04-24T08:51:07;23.50;34.49
75387;DHT22;63966;47.914;22.266;2023-04-24T08:54:12;22.82;35.90
75387;DHT22;63966;47.914;22.266;2023-04-24T08:57:15;22.32;36.70
75387;DHT22;63966;47.914;22.266;2023-04-24T09:00:21;21.76;37.90
75387;DHT22;63966;47.914;22.266;2023-04-24T09:03:26;21.47;37.30
75387;DHT22;63966;47.914;22.266;2023-04-24T09:06:30;21.59;41.82
75387;DHT22;63966;47.914;22.266;2023-04-24T09:09:36;21.96;37.57
75387;DHT22;63966;47.914;22.266;2023-04-24T09:12:42;22.03;37.32
75387;DHT22;63966;47.914;22.266;2023-04-24T09:15:47;22.34;37.35
75387;DHT22;63966;47.914;22.266;2023-04-24T09:18:51;21.89;36.15
75387;DHT22;63966;47.914;22.266;2023-04-24T09:21:55;21.50;37.33
75387;DHT22;63966;47.914;22.266;2023-04-24T09:25:08;21.56;37.01
75387;DHT22;63966;47.914;22.266;2023-04-24T09:28:12;21.84;37.62
75387;DHT22;63966;47.914;22.266;2023-04-24T09:31:19;22.24;38.39
75387;DHT22;63966;47.914;22.266;2023-04-24T09:34:27;22.10;37.56
75387;DHT22;63966;47.914;22.266;2023-04-24T09:37:34;21.77;35.59
75387;DHT22;63966;47.914;22.266;2023-04-24T09:40:40;21.41;36.94
75387;DHT22;63966;47.914;22.266;2023-04-24T09:43:46;21.15;37.08
75387;DHT22;63966;47.914;22.266;2023-04-24T09:46:53;20.97;37.48
75387;DHT22;63966;47.914;22.266;2023-04-24T09:49:58;20.73;39.34
75387;DHT22;63966;47.914;22.266;2023-04-24T09:53:05;20.67;39.14
75387;DHT22;63966;47.914;22.266;2023-04-24T09:56:10;20.80;39.01
75387;DHT22;63966;47.914;22.266;2023-04-24T09:59:18;20.66;38.62
75387;DHT22;63966;47.914;22.266;2023-04-24T10:02:21;20.76;39.22
75387;DHT22;63966;47.914;22.266;2023-04-24T10:05:33;21.56;37.56
75387;DHT22;63966;47.914;22.266;2023-04-24T10:08:37;21.84;36.88
75387;DHT22;63966;47.914;22.266;2023-04-24T10:11:45;22.01;36.46
75387;DHT22;63966;47.914;22.266;2023-04-24T10:14:49;21.90;38.29
75387;DHT22;63966;47.914;22.266;2023-04-24T10:17:53;21.62;37.98
75387;DHT22;63966;47.914;22.266;2023-04-24T10:20:58;21.67;37.15
75387;DHT22;63966;47.914;22.266;2023-04-24T10:24:04;21.66;38.05
75387;DHT22;63966;47.914;22.266;2023-04-24T10:27:08;21.83;35.87
75387;DHT22;63966;47.914;22.266;2023-04-24T10:30:13;21.29;37.18
75387;DHT22;63966;47.914;22.266;2023-04-24T10:33:17;21.32;36.57
75387;DHT22;63966;47.914;22.266;2023-04-24T10:41:18;21.09;38.46
75387;DHT22;63966;47.914;22.266;2023-04-24T10:44:36;20.91;39.35
75387;DHT22;63966;47.914;22.266;2023-04-24T10:47:40;20.80;39.02
75387;DHT22;63966;47.914;22.266;2023-04-24T10:50:45;20.60;39.46
75387;DHT22;63966;47.914;22.266;2023-04-24T10:53:52;20.19;41.98
75387;DHT22;63966;47.914;22.266;2023-04-24T11:00:22;19.02;46.79
75387;DHT22;63966;47.914;22.266;2023-04-24T11:03:33;18.68;47.51
75387;DHT22;63966;47.914;22.266;2023-04-24T11:06:37;18.76;47.62
75387;DHT22;63966;47.914;22.266;2023-04-24T11:09:42;18.45;48.43
75387;DHT22;63966;47.914;22.266;2023-04-24T11:12:47;18.52;48.38
75387;DHT22;63966;47.914;22.266;2023-04-24T11:16:20;18.33;48.13
75387;DHT22;63966;47.914;22.266;2023-04-24T11:19:25;18.41;48.68
75387;DHT22;63966;47.914;22.266;2023-04-24T11:22:32;18.59;48.96
75387;DHT22;63966;47.914;22.266;2023-04-24T11:25:37;18.99;46.96
75387;DHT22;63966;47.914;22.266;2023-04-24T11:28:50;19.24;47.52
75387;DHT22;63966;47.914;22.266;2023-04-24T11:31:53;19.58;46.09
75387;DHT22;63966;47.914;22.266;2023-04-24T11:35:02;19.61;45.61
75387;DHT22;63966;47.914;22.266;2023-04-24T11:38:07;19.84;46.78
75387;DHT22;63966;47.914;22.266;2023-04-24T11:41:30;19.95;46.60
75387;DHT22;63966;47.914;22.266;2023-04-24T11:44:35;20.18;45.78
75387;DHT22;63966;47.914;22.266;2023-04-24T11:47:41;20.25;45.10
75387;DHT22;63966;47.914;22.266;2023-04-24T11:50:47;20.32;44.66
75387;DHT22;63966;47.914;22.266;2023-04-24T11:53:50;20.28;45.65
75387;DHT22;63966;47.914;22.266;2023-04-24T11:57:07;20.20;46.68
75387;DHT22;63966;47.914;22.266;2023-04-24T12:00:32;20.26;46.42
75387;DHT22;63966;47.914;22.266;2023-04-24T12:03:37;19.92;46.45
75387;DHT22;63966;47.914;22.266;2023-04-24T12:07:00;20.02;47.86
75387;DHT22;63966;47.914;22.266;2023-04-24T12:10:05;19.58;49.52
75387;DHT22;63966;47.914;22.266;2023-04-24T12:13:10;19.26;50.39
75387;DHT22;63966;47.914;22.266;2023-04-24T12:16:14;19.41;50.81
75387;DHT22;63966;47.914;22.266;2023-04-24T12:19:22;19.24;51.56
75387;DHT22;63966;47.914;22.266;2023-04-24T12:22:26;19.10;51.47
75387;DHT22;63966;47.914;22.266;2023-04-24T12:25:31;18.98;52.68
75387;DHT22;63966;47.914;22.266;2023-04-24T12:28:36;18.88;52.01
75387;DHT22;63966;47.914;22.266;2023-04-24T12:31:40;18.95;51.03
75387;DHT22;63966;47.914;22.266;2023-04-24T12:34:44;18.85;52.86
75387;DHT22;63966;47.914;22.266;2023-04-24T12:37:48;18.75;51.84
75387;DHT22;63966;47.914;22.266;2023-04-24T12:41:08;18.52;51.98
75387;DHT22;63966;47.914;22.266;2023-04-24T12:44:12;18.38;52.96
75387;DHT22;63966;47.914;22.266;2023-04-24T12:47:16;18.31;52.81
75387;DHT22;63966;47.914;22.266;2023-04-24T12:50:19;17.99;54.65
75387;DHT22;63966;47.914;22.266;2023-04-24T12:53:23;18.01;54.33
75387;DHT22;63966;47.914;22.266;2023-04-24T12:56:29;18.10;54.65
75387;DHT22;63966;47.914;22.266;2023-04-24T12:59:33;18.13;54.76
75387;DHT22;63966;47.914;22.266;2023-04-24T13:02:37;17.89;54.43
75387;DHT22;63966;47.914;22.266;2023-04-24T13:05:42;17.96;55.68
75387;DHT22;63966;47.914;22.266;2023-04-24T13:08:45;17.86;56.64
75387;DHT22;63966;47.914;22.266;2023-04-24T13:11:51;17.51;58.31
75387;DHT22;63966;47.914;22.266;2023-04-24T13:14:54;17.15;59.14
75387;DHT22;63966;47.914;22.266;2023-04-24T13:17:59;17.13;58.98
75387;DHT22;63966;47.914;22.266;2023-04-24T13:21:02;17.11;58.36
75387;DHT22;63966;47.914;22.266;2023-04-24T13:24:06;17.06;58.88
75387;DHT22;63966;47.914;22.266;2023-04-24T13:27:11;16.88;58.83
75387;DHT22;63966;47.914;22.266;2023-04-24T13:30:14;16.97;58.66
75387;DHT22;63966;47.914;22.266;2023-04-24T13:33:18;17.07;59.77
75387;DHT22;63966;47.914;22.266;2023-04-24T13:36:21;17.06;60.58
75387;DHT22;63966;47.914;22.266;2023-04-24T13:39:25;16.86;62.38
75387;DHT22;63966;47.914;22.266;2023-04-24T13:42:29;16.77;63.35
75387;DHT22;63966;47.914;22.266;2023-04-24T13:45:33;16.51;65.23
75387;DHT22;63966;47.914;22.266;2023-04-24T13:48:36;16.36;63.65
75387;DHT22;63966;47.914;22.266;2023-04-24T13:51:40;16.15;64.86
75387;DHT22;63966;47.914;22.266;2023-04-24T13:54:44;16.18;64.84
75387;DHT22;63966;47.914;22.266;2023-04-24T13:57:48;16.25;65.39
75387;DHT22;63966;47.914;22.266;2023-04-24T14:00:52;16.11;66.26
75387;DHT22;63966;47.914;22.266;2023-04-24T14:03:56;16.17;65.34
75387;DHT22;63966;47.914;22.266;2023-04-24T14:07:00;16.11;65.21
75387;DHT22;63966;47.914;22.266;2023-04-24T14:10:04;16.00;64.62
75387;DHT22;63966;47.914;22.266;2023-04-24T14:13:08;16.00;65.07
75387;DHT22;63966;47.914;22.266;2023-04-24T14:16:12;15.80;65.27
75387;DHT22;63966;47.914;22.266;2023-04-24T14:19:16;15.90;65.50
75387;DHT22;63966;47.914;22.266;2023-04-24T14:22:19;15.81;65.98
75387;DHT22;63966;47.914;22.266;2023-04-24T14:25:23;15.71;66.68
75387;DHT22;63966;47.914;22.266;2023-04-24T14:28:27;15.60;67.69
75387;DHT22;63966;47.914;22.266;2023-04-24T14:31:30;15.56;68.37
75387;DHT22;63966;47.914;22.266;2023-04-24T14:34:34;15.42;70.34
75387;DHT22;63966;47.914;22.266;2023-04-24T14:37:38;15.39;71.36
75387;DHT22;63966;47.914;22.266;2023-04-24T14:40:44;15.38;71.74
75387;DHT22;63966;47.914;22.266;2023-04-24T14:44:07;15.40;72.64
75387;DHT22;63966;47.914;22.266;2023-04-24T14:47:11;15.49;73.28
75387;DHT22;63966;47.914;22.266;2023-04-24T14:50:14;15.52;73.33
75387;DHT22;63966;47.914;22.266;2023-04-24T14:53:18;15.47;73.18
75387;DHT22;63966;47.914;22.266;2023-04-24T14:56:22;15.46;74.60
75387;DHT22;63966;47.914;22.266;2023-04-24T14:59:26;15.52;74.82
75387;DHT22;63966;47.914;22.266;2023-04-24T15:02:30;15.50;73.85
75387;DHT22;63966;47.914;22.266;2023-04-24T15:05:34;15.47;74.64
75387;DHT22;63966;47.914;22.266;2023-04-24T15:08:39;15.42;75.16
75387;DHT22;63966;47.914;22.266;2023-04-24T15:11:42;15.50;74.88
75387;DHT22;63966;47.914;22.266;2023-04-24T15:14:46;15.36;74.77
75387;DHT22;63966;47.914;22.266;2023-04-24T15:17:49;15.35;74.60
75387;DHT22;63966;47.914;22.266;2023-04-24T15:20:53;15.08;76.43
75387;DHT22;63966;47.914;22.266;2023-04-24T15:23:56;14.92;76.95
75387;DHT22;63966;47.914;22.266;2023-04-24T15:27:00;14.80;77.14
75387;DHT22;63966;47.914;22.266;2023-04-24T15:30:05;14.80;78.23
75387;DHT22;63966;47.914;22.266;2023-04-24T15:33:08;14.75;78.48
75387;DHT22;63966;47.914;22.266;2023-04-24T15:36:12;14.85;78.48
75387;DHT22;63966;47.914;22.266;2023-04-24T15:39:15;14.80;78.69
75387;DHT22;63966;47.914;22.266;2023-04-24T15:42:19;14.85;78.41
75387;DHT22;63966;47.914;22.266;2023-04-24T15:45:23;14.85;78.37
75387;DHT22;63966;47.914;22.266;2023-04-24T15:48:31;14.65;79.37
75387;DHT22;63966;47.914;22.266;2023-04-24T15:51:34;14.61;79.75
75387;DHT22;63966;47.914;22.266;2023-04-24T15:54:38;14.59;80.31
75387;DHT22;63966;47.914;22.266;2023-04-24T15:57:43;14.59;80.19
75387;DHT22;63966;47.914;22.266;2023-04-24T16:00:47;14.51;80.50
75387;DHT22;63966;47.914;22.266;2023-04-24T16:03:51;14.44;80.37
75387;DHT22;63966;47.914;22.266;2023-04-24T16:06:54;14.36;80.61
75387;DHT22;63966;47.914;22.266;2023-04-24T16:09:59;14.47;80.23
75387;DHT22;63966;47.914;22.266;2023-04-24T16:13:03;14.37;80.42
75387;DHT22;63966;47.914;22.266;2023-04-24T16:16:07;14.37;81.55
75387;DHT22;63966;47.914;22.266;2023-04-24T16:19:11;14.32;81.39
75387;DHT22;63966;47.914;22.266;2023-04-24T16:22:14;14.29;82.29
75387;DHT22;63966;47.914;22.266;2023-04-24T16:25:18;14.25;82.32
75387;DHT22;63966;47.914;22.266;2023-04-24T16:28:22;14.22;82.13
75387;DHT22;63966;47.914;22.266;2023-04-24T16:31:25;14.19;82.32
75387;DHT22;63966;47.914;22.266;2023-04-24T16:34:29;14.04;82.86
75387;DHT22;63966;47.914;22.266;2023-04-24T16:37:33;14.09;82.73
75387;DHT22;63966;47.914;22.266;2023-04-24T16:40:38;13.92;83.93
75387;DHT22;63966;47.914;22.266;2023-04-24T16:43:41;13.95;83.76
75387;DHT22;63966;47.914;22.266;2023-04-24T16:46:45;13.89;83.74
75387;DHT22;63966;47.914;22.266;2023-04-24T16:49:50;13.85;84.13
75387;DHT22;63966;47.914;22.266;2023-04-24T16:52:53;13.77;84.74
75387;DHT22;63966;47.914;22.266;2023-04-24T16:55:57;13.75;84.65
75387;DHT22;63966;47.914;22.266;2023-04-24T16:59:01;13.85;84.11
75387;DHT22;63966;47.914;22.266;2023-04-24T17:02:05;13.89;84.47
75387;DHT22;63966;47.914;22.266;2023-04-24T17:05:09;13.81;84.54
75387;DHT22;63966;47.914;22.266;2023-04-24T17:08:13;13.94;83.43
75387;DHT22;63966;47.914;22.266;2023-04-24T17:11:17;13.86;83.56
75387;DHT22;63966;47.914;22.266;2023-04-24T17:14:21;13.94;82.94
75387;DHT22;63966;47.914;22.266;2023-04-24T17:17:26;13.89;82.88
75387;DHT22;63966;47.914;22.266;2023-04-24T17:20:30;13.89;82.77
75387;DHT22;63966;47.914;22.266;2023-04-24T17:23:34;13.82;83.59
75387;DHT22;63966;47.914;22.266;2023-04-24T17:26:37;13.78;83.48
75387;DHT22;63966;47.914;22.266;2023-04-24T17:29:41;13.81;83.65
75387;DHT22;63966;47.914;22.266;2023-04-24T17:32:45;13.69;83.76
75387;DHT22;63966;47.914;22.266;2023-04-24T17:35:49;13.79;82.69
75387;DHT22;63966;47.914;22.266;2023-04-24T17:38:53;13.77;83.02
75387;DHT22;63966;47.914;22.266;2023-04-24T17:41:57;13.72;83.21
75387;DHT22;63966;47.914;22.266;2023-04-24T17:45:01;13.57;83.99
75387;DHT22;63966;47.914;22.266;2023-04-24T17:48:04;13.48;84.47
75387;DHT22;63966;47.914;22.266;2023-04-24T17:51:08;13.62;83.60
75387;DHT22;63966;47.914;22.266;2023-04-24T17:54:12;13.65;83.44
75387;DHT22;63966;47.914;22.266;2023-04-24T17:57:17;13.55;83.99
75387;DHT22;63966;47.914;22.266;2023-04-24T18:00:21;13.50;84.13
75387;DHT22;63966;47.914;22.266;2023-04-24T18:03:25;13.48;84.13
75387;DHT22;63966;47.914;22.266;2023-04-24T18:06:29;13.48;84.14
75387;DHT22;63966;47.914;22.266;2023-04-24T18:09:32;13.50;83.97
75387;DHT22;63966;47.914;22.266;2023-04-24T18:12:36;13.37;84.98
75387;DHT22;63966;47.914;22.266;2023-04-24T18:15:40;13.31;85.30
75387;DHT22;63966;47.914;22.266;2023-04-24T18:18:45;13.37;85.05
75387;DHT22;63966;47.914;22.266;2023-04-24T18:21:50;13.28;85.53
75387;DHT22;63966;47.914;22.266;2023-04-24T18:24:54;13.24;86.19
75387;DHT22;63966;47.914;22.266;2023-04-24T18:27:58;13.26;86.27
75387;DHT22;63966;47.914;22.266;2023-04-24T18:31:02;13.14;86.48
75387;DHT22;63966;47.914;22.266;2023-04-24T18:34:06;13.12;86.90
75387;DHT22;63966;47.914;22.266;2023-04-24T18:37:10;13.02;87.35
75387;DHT22;63966;47.914;22.266;2023-04-24T18:40:15;13.00;87.65
75387;DHT22;63966;47.914;22.266;2023-04-24T18:43:19;13.06;87.28
75387;DHT22;63966;47.914;22.266;2023-04-24T18:46:23;13.02;87.49
75387;DHT22;63966;47.914;22.266;2023-04-24T18:49:27;12.93;88.05
75387;DHT22;63966;47.914;22.266;2023-04-24T18:52:30;13.04;87.84
75387;DHT22;63966;47.914;22.266;2023-04-24T18:55:34;13.00;88.15
75387;DHT22;63966;47.914;22.266;2023-04-24T18:58:39;12.88;88.71
75387;DHT22;63966;47.914;22.266;2023-04-24T19:01:46;12.89;88.76
75387;DHT22;63966;47.914;22.266;2023-04-24T19:04:50;13.12;87.82
75387;DHT22;63966;47.914;22.266;2023-04-24T19:07:54;13.17;87.44
75387;DHT22;63966;47.914;22.266;2023-04-24T19:10:59;13.03;88.06
75387;DHT22;63966;47.914;22.266;2023-04-24T19:14:03;12.96;88.44
75387;DHT22;63966;47.914;22.266;2023-04-24T19:17:08;13.00;88.16
75387;DHT22;63966;47.914;22.266;2023-04-24T19:20:12;13.03;87.93
75387;DHT22;63966;47.914;22.266;2023-04-24T19:23:16;12.85;88.95
75387;DHT22;63966;47.914;22.266;2023-04-24T19:26:20;13.10;87.63